Millers, Maryland
Current Conditions -  °F | °C
As of 7:10 PM on Thursday 27 Nov 2014 (Local Time) from KDMW Reporting Station
Scattered Clouds Scattered Clouds  
Wind Chill: 34°   Ceiling: Unl
Heat Index: 34°   Visibility: 10mi
Dew Point: 30°   Wind: 3mph
Humidity: 87%   Direction: 280°W
Pressure: 30.09"   Gusts: NA
Location:  39.6887°N, 76.8586°W
Report Text: KDMW 280010Z AUTO 28003KT 10SM SCT070 01/M01 A3009 RMK AO2
Loading
Personal Weather Stations






























Interactive Weather Map New forecast layout! Learn more

10-Day Weather Forecast

Advertisements
Track Severe Weather on mobile